createdAt,value
2023-05-05T00:01:03.071Z,101941.47
2023-05-05T00:03:31.433Z,101946.84
2023-05-05T00:05:59.760Z,101945.03
2023-05-05T00:08:28.565Z,101946.13
2023-05-05T00:10:57.676Z,101934.50
2023-05-05T00:13:27.319Z,101924.75
2023-05-05T00:15:55.617Z,101928.31
2023-05-05T00:18:23.909Z,101928.31
2023-05-05T00:20:52.424Z,101925.81
2023-05-05T00:23:21.190Z,101925.94
2023-05-05T00:25:49.404Z,101924.13
2023-05-05T00:28:17.654Z,101929.44
2023-05-05T00:30:47.341Z,101920.44
2023-05-05T00:33:15.866Z,101920.50
2023-05-05T00:35:44.214Z,101916.94
2023-05-05T00:38:12.674Z,101921.31
2023-05-05T00:40:40.986Z,101915.91
2023-05-05T00:43:09.237Z,101913.16
2023-05-05T00:45:39.234Z,101906.03
2023-05-05T00:48:09.512Z,101908.78
2023-05-05T00:50:38.637Z,101903.28
2023-05-05T00:53:08.095Z,101903.28
2023-05-05T00:55:36.687Z,101896.06
2023-05-05T00:58:05.204Z,101900.56
2023-05-05T01:00:33.576Z,101893.44
2023-05-05T01:03:01.960Z,101895.31
2023-05-05T01:05:36.724Z,101890.00
2023-05-05T01:08:16.369Z,101889.94
2023-05-05T01:10:47.324Z,101890.88
2023-05-05T01:13:24.464Z,101896.41
2023-05-05T01:15:56.995Z,101900.91
2023-05-05T01:18:43.163Z,101905.38
2023-05-05T01:21:16.849Z,101903.47
2023-05-05T01:24:08.074Z,101895.53
2023-05-05T01:26:49.127Z,101900.13
2023-05-05T01:29:51.781Z,101894.88
2023-05-05T01:32:25.200Z,101900.28
2023-05-05T01:34:56.212Z,101895.75
2023-05-05T01:37:28.095Z,101886.81
2023-05-05T01:40:00.455Z,101886.94
2023-05-05T01:42:30.473Z,101886.94
2023-05-05T01:45:00.039Z,101888.81
2023-05-05T01:47:30.227Z,101894.25
2023-05-05T01:49:59.395Z,101882.59
2023-05-05T01:52:28.467Z,101888.94
2023-05-05T01:54:57.705Z,101873.72
2023-05-05T01:57:26.573Z,101881.78
2023-05-05T01:59:55.792Z,101886.38
2023-05-05T02:02:24.482Z,101880.97
2023-05-05T02:04:55.730Z,101874.72
2023-05-05T02:07:24.639Z,101876.59
2023-05-05T02:09:53.689Z,101868.53
2023-05-05T02:12:22.588Z,101871.22
2023-05-05T02:14:52.244Z,101884.75
2023-05-05T02:17:21.562Z,101876.59
2023-05-05T02:19:52.413Z,101865.97
2023-05-05T02:22:22.010Z,101862.50
2023-05-05T02:24:50.272Z,101866.28
2023-05-05T02:27:20.259Z,101871.66
2023-05-05T02:29:51.548Z,101870.03
2023-05-05T02:32:23.574Z,101858.41
2023-05-05T02:34:53.329Z,101862.09
2023-05-05T02:37:25.217Z,101860.38
2023-05-05T02:39:59.556Z,101854.19
2023-05-05T02:42:30.838Z,101860.44
2023-05-05T02:45:01.165Z,101858.81
2023-05-05T02:47:36.859Z,101858.06
2023-05-05T02:50:05.454Z,101859.13
2023-05-05T02:52:35.575Z,101853.94
2023-05-05T02:55:05.364Z,101845.06
2023-05-05T02:57:38.909Z,101837.91
2023-05-05T03:00:11.880Z,101829.91
2023-05-05T03:02:45.730Z,101833.50
2023-05-05T03:05:18.325Z,101830.88
2023-05-05T03:07:55.481Z,101830.88
2023-05-05T03:10:28.706Z,101827.25
2023-05-05T03:12:59.675Z,101830.88
2023-05-05T03:15:31.493Z,101825.50
2023-05-05T03:18:00.317Z,101819.38
2023-05-05T03:20:28.718Z,101813.13
2023-05-05T03:22:58.404Z,101811.38
2023-05-05T03:25:44.622Z,101816.81
2023-05-05T03:28:12.832Z,101814.19
2023-05-05T03:30:41.227Z,101809.75
2023-05-05T03:33:09.634Z,101799.06
2023-05-05T03:35:38.049Z,101806.22
2023-05-05T03:38:07.758Z,101800.84
2023-05-05T03:40:43.649Z,101808.00
2023-05-05T03:43:12.692Z,101800.84
2023-05-05T03:45:40.967Z,101797.25
2023-05-05T03:48:10.107Z,101795.44
2023-05-05T03:50:38.457Z,101790.09
2023-05-05T03:53:08.149Z,101795.59
2023-05-05T03:55:36.434Z,101795.47
2023-05-05T03:58:04.720Z,101795.47
2023-05-05T04:00:32.926Z,101794.59
2023-05-05T04:03:01.142Z,101802.63
2023-05-05T04:05:29.551Z,101806.13
2023-05-05T04:07:58.454Z,101813.25
2023-05-05T04:10:28.442Z,101813.19
2023-05-05T04:12:56.953Z,101810.44
2023-05-05T04:15:25.316Z,101807.63
2023-05-05T04:17:53.610Z,101802.25
2023-05-05T04:20:22.018Z,101804.94
2023-05-05T04:22:52.729Z,101804.88
2023-05-05T04:25:21.113Z,101802.16
2023-05-05T04:27:51.132Z,101792.28
2023-05-05T04:30:19.459Z,101781.44
2023-05-05T04:32:47.749Z,101784.06
2023-05-05T04:35:16.027Z,101791.13
2023-05-05T04:37:44.302Z,101802.75
2023-05-05T04:40:13.222Z,101806.25
2023-05-05T04:42:41.549Z,101806.19
2023-05-05T04:45:13.199Z,101800.00
2023-05-05T04:47:41.830Z,101803.56
2023-05-05T04:50:11.448Z,101808.78
2023-05-05T04:52:39.708Z,101804.16
2023-05-05T04:55:10.302Z,101812.03
2023-05-05T04:57:38.532Z,101812.72
2023-05-05T05:00:08.228Z,101811.53
2023-05-05T05:02:38.765Z,101808.66
2023-05-05T05:05:08.064Z,101810.28
2023-05-05T05:07:36.265Z,101812.63
2023-05-05T05:10:04.703Z,101819.66
2023-05-05T05:12:33.025Z,101821.41
2023-05-05T05:15:01.274Z,101822.22
2023-05-05T05:17:30.463Z,101822.16
2023-05-05T05:20:04.738Z,101823.91
2023-05-05T05:22:33.064Z,101821.19
2023-05-05T05:25:01.342Z,101821.94
2023-05-05T05:27:29.540Z,101830.56
2023-05-05T05:29:57.749Z,101840.69
2023-05-05T05:32:26.415Z,101839.03
2023-05-05T05:34:54.733Z,101834.50
2023-05-05T05:37:24.303Z,101836.59
2023-05-05T05:39:53.210Z,101836.13
2023-05-05T05:42:21.412Z,101846.28
2023-05-05T05:44:49.631Z,101831.44
2023-05-05T05:47:18.068Z,101836.25
2023-05-05T05:49:46.415Z,101841.22
2023-05-05T05:52:14.601Z,101821.66
2023-05-05T05:54:44.214Z,101814.97
2023-05-05T05:57:12.499Z,101812.66
2023-05-05T05:59:40.730Z,101822.22
2023-05-05T06:02:09.775Z,101832.22
2023-05-05T06:04:38.096Z,101830.13
2023-05-05T06:07:06.402Z,101840.91
2023-05-05T06:09:34.598Z,101837.25
2023-05-05T06:12:04.182Z,101849.50
2023-05-05T06:14:32.301Z,101836.50
2023-05-05T06:17:00.365Z,101831.03
2023-05-05T06:19:28.828Z,101822.72
2023-05-05T06:21:56.954Z,101815.34
2023-05-05T06:24:25.070Z,101837.81
2023-05-05T06:26:53.147Z,101834.31
2023-05-05T06:29:22.631Z,101829.88
2023-05-05T06:31:51.020Z,101823.69
2023-05-05T06:34:19.437Z,101827.47
2023-05-05T06:36:47.785Z,101822.22
2023-05-05T06:39:16.289Z,101820.41
2023-05-05T06:41:44.624Z,101824.75
2023-05-05T06:44:12.924Z,101810.97
2023-05-05T06:46:43.836Z,101805.91
2023-05-05T06:49:12.399Z,101794.94
2023-05-05T06:51:42.753Z,101796.63
2023-05-05T06:54:11.182Z,101792.00
2023-05-05T06:56:39.478Z,101791.91
2023-05-05T06:59:07.908Z,101793.66
2023-05-05T07:01:36.155Z,101793.84
2023-05-05T07:04:06.344Z,101792.97
2023-05-05T07:06:34.644Z,101797.75
2023-05-05T07:09:03.547Z,101808.06
2023-05-05T07:11:31.760Z,101812.59
2023-05-05T07:13:59.967Z,101815.59
2023-05-05T07:16:28.203Z,101813.56
2023-05-05T07:18:56.852Z,101826.38
2023-05-05T07:21:26.433Z,101807.19
2023-05-05T07:23:54.620Z,101818.63
2023-05-05T07:26:23.008Z,101824.72
2023-05-05T07:28:52.526Z,101830.56
2023-05-05T07:31:22.064Z,101829.84
2023-05-05T07:33:50.696Z,101837.09
2023-05-05T07:36:19.516Z,101839.00
2023-05-05T07:38:49.097Z,101828.47
2023-05-05T07:41:18.531Z,101837.97
2023-05-05T07:43:46.814Z,101837.94
2023-05-05T07:46:15.239Z,101828.88
2023-05-05T07:48:43.469Z,101835.09
2023-05-05T07:51:12.017Z,101844.66
2023-05-05T07:53:40.217Z,101840.88
2023-05-05T07:56:09.840Z,101836.69
2023-05-05T07:58:38.300Z,101846.31
2023-05-05T08:01:10.799Z,101857.88
2023-05-05T08:03:39.152Z,101855.22
2023-05-05T08:06:09.125Z,101851.88
2023-05-05T08:08:37.360Z,101846.97
2023-05-05T08:11:06.649Z,101841.53
2023-05-05T08:13:36.746Z,101837.00
2023-05-05T08:16:05.308Z,101845.72
2023-05-05T08:18:34.481Z,101850.09
2023-05-05T08:21:02.727Z,101859.00
2023-05-05T08:23:30.898Z,101863.09
2023-05-05T08:25:59.276Z,101869.47
2023-05-05T08:28:27.760Z,101865.13
2023-05-05T08:30:57.410Z,101876.00
2023-05-05T08:33:25.709Z,101874.50
2023-05-05T08:35:53.977Z,101880.06
2023-05-05T08:38:22.248Z,101893.28
2023-05-05T08:40:52.252Z,101877.88
2023-05-05T08:43:22.914Z,101884.03
2023-05-05T08:45:52.412Z,101886.34
2023-05-05T08:48:24.355Z,101893.28
2023-05-05T08:50:57.382Z,101893.91
2023-05-05T08:53:37.168Z,101892.97
2023-05-05T08:56:06.825Z,101884.03
2023-05-05T08:58:37.652Z,101879.50
2023-05-05T09:01:07.034Z,101871.00
2023-05-05T09:03:38.225Z,101875.72
2023-05-05T09:06:07.087Z,101866.28
2023-05-05T09:08:35.366Z,101868.31
2023-05-05T09:11:03.924Z,101867.03
2023-05-05T09:13:32.574Z,101854.69
2023-05-05T09:16:01.035Z,101852.13
2023-05-05T09:18:29.961Z,101854.31
2023-05-05T09:21:00.205Z,101842.66
2023-05-05T09:23:28.353Z,101855.28
2023-05-05T09:26:08.869Z,101863.00
2023-05-05T09:28:37.672Z,101862.03
2023-05-05T09:31:16.426Z,101858.53
2023-05-05T09:33:44.941Z,101852.88
2023-05-05T09:36:14.552Z,101857.25
2023-05-05T09:38:42.692Z,101856.59
2023-05-05T09:41:10.973Z,101859.22
2023-05-05T09:43:52.861Z,101862.91
2023-05-05T09:46:21.219Z,101868.97
2023-05-05T09:48:49.423Z,101863.25
2023-05-05T09:51:29.740Z,101853.25
2023-05-05T09:53:58.446Z,101846.38
2023-05-05T09:56:41.517Z,101853.44
2023-05-05T09:59:10.215Z,101844.16
2023-05-05T10:01:39.080Z,101843.34
2023-05-05T10:04:07.464Z,101850.25
2023-05-05T10:06:47.194Z,101856.41
2023-05-05T10:09:15.835Z,101842.84
2023-05-05T10:11:46.157Z,101828.00
2023-05-05T10:14:15.789Z,101826.81
2023-05-05T10:16:48.359Z,101832.28
2023-05-05T10:19:18.166Z,101824.16
2023-05-05T10:21:51.662Z,101834.91
2023-05-05T10:24:28.056Z,101823.78
2023-05-05T10:26:59.175Z,101809.06
2023-05-05T10:29:34.946Z,101811.75
2023-05-05T10:32:27.240Z,101802.69
2023-05-05T10:34:58.790Z,101788.19
2023-05-05T10:37:29.155Z,101798.22
2023-05-05T10:39:57.915Z,101802.13
2023-05-05T10:42:27.777Z,101801.75
2023-05-05T10:44:56.023Z,101796.91
2023-05-05T10:47:24.731Z,101808.56
2023-05-05T10:49:56.908Z,101807.06
2023-05-05T10:52:32.581Z,101806.97
2023-05-05T10:55:09.468Z,101811.59
2023-05-05T10:57:41.108Z,101810.34
2023-05-05T11:00:10.530Z,101814.44
2023-05-05T11:02:38.839Z,101809.53
2023-05-05T11:05:09.390Z,101804.84
2023-05-05T11:07:39.214Z,101817.81
2023-05-05T11:10:08.857Z,101824.00
2023-05-05T11:13:14.773Z,101803.59
2023-05-05T11:15:43.076Z,101810.59
2023-05-05T11:18:28.260Z,101799.09
2023-05-05T11:21:15.268Z,101791.66
2023-05-05T11:23:49.152Z,101782.56
2023-05-05T11:26:18.564Z,101775.16
2023-05-05T11:29:01.218Z,101770.25
2023-05-05T11:31:30.625Z,101773.88
2023-05-05T11:34:24.818Z,101783.00
2023-05-05T11:36:53.344Z,101769.28
2023-05-05T11:39:29.177Z,101782.53
2023-05-05T11:42:11.007Z,101768.06
2023-05-05T11:44:39.252Z,101779.31
2023-05-05T11:47:26.816Z,101783.66
2023-05-05T11:49:55.584Z,101786.00
2023-05-05T11:52:25.782Z,101787.94
2023-05-05T11:55:01.008Z,101788.81
2023-05-05T11:57:30.762Z,101795.22
2023-05-05T12:00:01.740Z,101790.81
2023-05-05T12:02:31.483Z,101785.31
2023-05-05T12:05:00.901Z,101779.63
2023-05-05T12:07:30.918Z,101782.91
2023-05-05T12:10:00.837Z,101800.16
2023-05-05T12:12:36.984Z,101796.94
2023-05-05T12:15:06.507Z,101796.69
2023-05-05T12:17:42.546Z,101792.78
2023-05-05T12:20:12.422Z,101794.69
2023-05-05T12:22:41.331Z,101799.13
2023-05-05T12:25:11.711Z,101786.72
2023-05-05T12:27:39.921Z,101777.38
2023-05-05T12:30:19.617Z,101763.81
2023-05-05T12:32:47.788Z,101771.94
2023-05-05T12:35:17.006Z,101766.50
2023-05-05T12:37:45.590Z,101761.88
2023-05-05T12:40:49.656Z,101754.34
2023-05-05T12:43:26.526Z,101766.72
2023-05-05T12:46:05.571Z,101762.13
2023-05-05T12:48:34.001Z,101770.50
2023-05-05T12:51:19.795Z,101762.16
2023-05-05T12:53:48.526Z,101769.16
2023-05-05T12:56:38.252Z,101756.66
2023-05-05T12:59:07.674Z,101770.22
2023-05-05T13:01:36.254Z,101778.06
2023-05-05T13:04:09.594Z,101775.06
2023-05-05T13:06:37.933Z,101775.56
2023-05-05T13:09:09.747Z,101791.38
2023-05-05T13:11:39.790Z,101793.63
2023-05-05T13:14:08.707Z,101784.13
2023-05-05T13:16:36.927Z,101790.88
2023-05-05T13:19:05.151Z,101788.66
2023-05-05T13:21:33.533Z,101780.66
2023-05-05T13:24:20.784Z,101777.31
2023-05-05T13:26:51.259Z,101773.03
2023-05-05T13:29:19.653Z,101774.25
2023-05-05T13:31:47.888Z,101759.16
2023-05-05T13:34:15.989Z,101764.88
2023-05-05T13:36:44.063Z,101754.84
2023-05-05T13:39:12.724Z,101752.63
2023-05-05T13:41:40.834Z,101746.50
2023-05-05T13:44:10.287Z,101762.16
2023-05-05T13:46:38.430Z,101768.88
2023-05-05T13:49:06.640Z,101754.91
2023-05-05T13:51:35.596Z,101759.06
2023-05-05T13:54:04.029Z,101750.16
2023-05-05T13:56:32.127Z,101749.69
2023-05-05T13:59:00.893Z,101745.16
2023-05-05T14:01:30.685Z,101737.09
2023-05-05T14:03:59.017Z,101733.13
2023-05-05T14:06:27.770Z,101718.47
2023-05-05T14:08:55.920Z,101733.91
2023-05-05T14:11:24.310Z,101732.78
2023-05-05T14:13:52.883Z,101725.91
2023-05-05T14:16:21.071Z,101730.19
2023-05-05T14:18:50.652Z,101729.75
2023-05-05T14:21:18.735Z,101724.34
2023-05-05T14:23:46.847Z,101709.78
2023-05-05T14:26:14.907Z,101712.56
2023-05-05T14:28:43.563Z,101699.84
2023-05-05T14:31:12.000Z,101705.75
2023-05-05T14:33:40.198Z,101725.97
2023-05-05T14:36:10.254Z,101708.16
2023-05-05T14:38:38.495Z,101717.69
2023-05-05T14:41:06.638Z,101712.31
2023-05-05T14:43:34.772Z,101702.56
2023-05-05T14:46:06.642Z,101706.66
2023-05-05T14:48:35.226Z,101707.03
2023-05-05T14:51:03.333Z,101705.41
2023-05-05T14:53:32.838Z,101706.28
2023-05-05T14:56:02.273Z,101705.59
2023-05-05T14:58:31.157Z,101706.28
2023-05-05T15:01:00.452Z,101694.78
2023-05-05T15:03:28.826Z,101690.47
2023-05-05T15:05:57.012Z,101690.47
2023-05-05T15:08:25.185Z,101694.31
2023-05-05T15:10:54.634Z,101696.75
2023-05-05T15:13:22.816Z,101705.06
2023-05-05T15:15:51.389Z,101696.06
2023-05-05T15:18:20.063Z,101681.69
2023-05-05T15:20:48.209Z,101676.78
2023-05-05T15:23:16.307Z,101680.84
2023-05-05T15:25:44.508Z,101674.75
2023-05-05T15:28:14.070Z,101676.44
2023-05-05T15:30:42.136Z,101675.59
2023-05-05T15:33:10.218Z,101672.97
2023-05-05T15:35:38.490Z,101683.03
2023-05-05T15:38:06.604Z,101679.34
2023-05-05T15:40:34.655Z,101667.72
2023-05-05T15:43:02.793Z,101662.69
2023-05-05T15:45:32.242Z,101661.28
2023-05-05T15:48:00.440Z,101666.34
2023-05-05T15:50:28.613Z,101672.56
2023-05-05T15:52:57.346Z,101671.75
2023-05-05T15:55:25.617Z,101667.47
2023-05-05T15:57:54.040Z,101667.56
2023-05-05T16:00:22.613Z,101669.13
2023-05-05T16:02:52.198Z,101677.88
2023-05-05T16:05:22.830Z,101666.88
2023-05-05T16:07:52.563Z,101665.16
2023-05-05T16:10:20.842Z,101661.44
2023-05-05T16:12:49.077Z,101656.81
2023-05-05T16:15:17.140Z,101661.13
2023-05-05T16:17:45.319Z,101662.38
2023-05-05T16:20:14.985Z,101661.81
2023-05-05T16:22:43.090Z,101652.09
2023-05-05T16:25:11.516Z,101644.16
2023-05-05T16:27:39.662Z,101648.88
2023-05-05T16:30:10.228Z,101638.31
2023-05-05T16:32:38.472Z,101645.69
2023-05-05T16:35:09.220Z,101620.84
2023-05-05T16:37:38.924Z,101632.28
2023-05-05T16:40:08.221Z,101633.75
2023-05-05T16:42:36.334Z,101631.53
2023-05-05T16:45:04.851Z,101629.00
2023-05-05T16:47:32.932Z,101640.19
2023-05-05T16:50:00.997Z,101640.34
2023-05-05T16:52:29.142Z,101641.53
2023-05-05T16:54:58.622Z,101649.38
2023-05-05T16:57:26.930Z,101660.66
2023-05-05T16:59:56.275Z,101662.59
2023-05-05T17:02:24.529Z,101659.09
2023-05-05T17:04:52.836Z,101666.56
2023-05-05T17:07:21.434Z,101655.00
2023-05-05T17:09:49.639Z,101671.97
2023-05-05T17:12:19.150Z,101666.84
2023-05-05T17:14:47.275Z,101672.66
2023-05-05T17:17:15.384Z,101677.59
2023-05-05T17:19:44.831Z,101682.41
2023-05-05T17:22:13.042Z,101674.63
2023-05-05T17:24:41.215Z,101665.81
2023-05-05T17:27:09.352Z,101662.38
2023-05-05T17:29:40.920Z,101667.13
2023-05-05T17:32:09.545Z,101660.19
2023-05-05T17:34:37.825Z,101663.38
2023-05-05T17:37:05.927Z,101666.72
2023-05-05T17:39:34.113Z,101646.53
2023-05-05T17:42:02.321Z,101652.19
2023-05-05T17:44:31.445Z,101652.56
2023-05-05T17:47:02.760Z,101660.09
2023-05-05T17:49:30.961Z,101661.34
2023-05-05T17:51:59.010Z,101668.06
2023-05-05T17:54:27.246Z,101668.38
2023-05-05T17:56:55.334Z,101666.78
2023-05-05T17:59:23.469Z,101664.34
2023-05-05T18:01:51.642Z,101671.91
2023-05-05T18:04:21.043Z,101670.47
2023-05-05T18:06:49.236Z,101670.91
2023-05-05T18:09:17.703Z,101681.94
2023-05-05T18:11:45.840Z,101678.56
2023-05-05T18:14:14.028Z,101677.81
2023-05-05T18:16:43.874Z,101678.75
2023-05-05T18:19:11.997Z,101686.09
2023-05-05T18:21:41.450Z,101682.69
2023-05-05T18:24:19.480Z,101682.09
2023-05-05T18:26:50.133Z,101676.06
2023-05-05T18:29:18.307Z,101669.22
2023-05-05T18:31:48.443Z,101682.06
2023-05-05T18:34:17.871Z,101677.13
2023-05-05T18:36:47.980Z,101675.63
2023-05-05T18:39:16.280Z,101670.63
2023-05-05T18:41:44.372Z,101671.78
2023-05-05T18:44:12.616Z,101672.78
2023-05-05T18:46:40.811Z,101685.47
2023-05-05T18:49:08.946Z,101682.19
2023-05-05T18:51:37.061Z,101684.13
2023-05-05T18:54:06.872Z,101693.28
2023-05-05T18:56:34.978Z,101682.03
2023-05-05T18:59:03.206Z,101684.03
2023-05-05T19:01:31.387Z,101681.53
2023-05-05T19:03:59.539Z,101688.81
2023-05-05T19:06:27.784Z,101699.53
2023-05-05T19:08:56.810Z,101684.38
2023-05-05T19:11:26.375Z,101695.94
2023-05-05T19:13:54.524Z,101703.06
2023-05-05T19:16:22.902Z,101695.84
2023-05-05T19:18:51.046Z,101704.69
2023-05-05T19:21:19.135Z,101719.06
2023-05-05T19:23:47.217Z,101717.13
2023-05-05T19:26:16.167Z,101700.97
2023-05-05T19:28:45.606Z,101709.81
2023-05-05T19:31:13.740Z,101709.88
2023-05-05T19:33:45.461Z,101715.44
2023-05-05T19:36:13.839Z,101714.56
2023-05-05T19:38:44.310Z,101711.06
2023-05-05T19:41:12.751Z,101713.81
2023-05-05T19:43:40.848Z,101709.41
2023-05-05T19:46:10.524Z,101699.59
2023-05-05T19:48:39.084Z,101706.88
2023-05-05T19:51:07.249Z,101707.13
2023-05-05T19:53:35.781Z,101703.66
2023-05-05T19:56:04.737Z,101701.91
2023-05-05T19:58:53.059Z,101706.63
2023-05-05T20:01:22.576Z,101703.13
2023-05-05T20:03:51.077Z,101705.75
2023-05-05T20:06:19.259Z,101708.38
2023-05-05T20:08:47.382Z,101708.44
2023-05-05T20:11:17.103Z,101703.94
2023-05-05T20:13:45.230Z,101711.16
2023-05-05T20:16:13.443Z,101688.88
2023-05-05T20:18:42.963Z,101687.06
2023-05-05T20:21:11.188Z,101688.97
2023-05-05T20:23:39.495Z,101681.03
2023-05-05T20:26:07.729Z,101686.59
2023-05-05T20:28:36.825Z,101692.84
2023-05-05T20:31:04.929Z,101686.66
2023-05-05T20:33:33.069Z,101689.47
2023-05-05T20:36:02.618Z,101689.53
2023-05-05T20:38:30.809Z,101692.19
2023-05-05T20:40:58.939Z,101666.31
2023-05-05T20:43:27.213Z,101679.72
2023-05-05T20:45:55.431Z,101679.72
2023-05-05T20:48:23.525Z,101686.06
2023-05-05T20:50:52.192Z,101691.38
2023-05-05T20:53:24.274Z,101689.56
2023-05-05T20:55:52.376Z,101686.84
2023-05-05T20:58:20.553Z,101697.44
2023-05-05T21:00:48.820Z,101684.91
2023-05-05T21:03:16.919Z,101668.81
2023-05-05T21:05:45.374Z,101677.84
2023-05-05T21:08:13.405Z,101685.03
2023-05-05T21:10:43.077Z,101684.16
2023-05-05T21:13:11.196Z,101682.34
2023-05-05T21:15:39.361Z,101670.69
2023-05-05T21:18:07.546Z,101669.81
2023-05-05T21:20:36.268Z,101665.50
2023-05-05T21:23:04.402Z,101657.53
2023-05-05T21:25:32.597Z,101656.66
2023-05-05T21:28:02.016Z,101642.38
2023-05-05T21:30:30.250Z,101653.34
2023-05-05T21:32:58.372Z,101663.28
2023-05-05T21:35:26.605Z,101662.41
2023-05-05T21:37:54.664Z,101633.75
2023-05-05T21:40:22.917Z,101641.78
2023-05-05T21:42:50.980Z,101649.91
2023-05-05T21:45:23.875Z,101642.81
2023-05-05T21:47:52.001Z,101650.91
2023-05-05T21:50:20.351Z,101649.91
2023-05-05T21:52:48.468Z,101634.69
2023-05-05T21:55:16.808Z,101652.47
2023-05-05T21:57:44.890Z,101637.25
2023-05-05T22:00:16.679Z,101649.72
2023-05-05T22:02:46.578Z,101646.16
2023-05-05T22:05:14.780Z,101624.66
2023-05-05T22:07:42.880Z,101639.81
2023-05-05T22:10:11.758Z,101648.72
2023-05-05T22:12:40.104Z,101637.06
2023-05-05T22:15:09.690Z,101653.16
2023-05-05T22:17:38.009Z,101653.03
2023-05-05T22:20:09.233Z,101652.09
2023-05-05T22:22:37.481Z,101637.88
2023-05-05T22:25:06.221Z,101643.31
2023-05-05T22:27:34.269Z,101648.69
2023-05-05T22:30:02.346Z,101645.94
2023-05-05T22:32:30.484Z,101656.63
2023-05-05T22:34:58.564Z,101654.84
2023-05-05T22:37:28.095Z,101663.63
2023-05-05T22:39:56.230Z,101656.41
2023-05-05T22:42:24.279Z,101659.91
2023-05-05T22:44:52.803Z,101657.28
2023-05-05T22:47:21.108Z,101649.25
2023-05-05T22:49:49.357Z,101647.44
2023-05-05T22:52:17.936Z,101638.50
2023-05-05T22:54:47.399Z,101643.94
2023-05-05T22:57:15.448Z,101641.25
2023-05-05T22:59:43.505Z,101628.84
2023-05-05T23:02:11.592Z,101618.09
2023-05-05T23:04:39.737Z,101629.81
2023-05-05T23:07:07.849Z,101626.28
2023-05-05T23:09:35.889Z,101628.03
2023-05-05T23:12:05.383Z,101633.41
2023-05-05T23:14:33.476Z,101654.78
2023-05-05T23:17:01.585Z,101645.63
2023-05-05T23:19:32.180Z,101641.00
2023-05-05T23:22:00.418Z,101635.56
2023-05-05T23:24:28.854Z,101643.63
2023-05-05T23:26:59.349Z,101640.00
2023-05-05T23:29:29.267Z,101631.03
2023-05-05T23:31:57.359Z,101616.78
2023-05-05T23:34:25.545Z,101620.34
2023-05-05T23:36:53.606Z,101628.41
2023-05-05T23:39:21.695Z,101621.22
2023-05-05T23:41:49.794Z,101613.19
2023-05-05T23:44:17.868Z,101622.16
2023-05-05T23:46:47.297Z,101618.53
2023-05-05T23:49:15.354Z,101626.41
2023-05-05T23:51:43.431Z,101625.47
2023-05-05T23:54:11.482Z,101622.66
2023-05-05T23:56:40.767Z,101618.09
2023-05-05T23:59:08.821Z,101626.16
